Time;durP1;ratioP1;P1;durP2;ratioP2;P2;SDS_P1;SDS_P2;PMS_P1;PMS_P2;Temp;Humidity;BMP_temperature;BMP_pressure;BME280_temperature;BME280_humidity;BME280_pressure;Samples;Min_cycle;Max_cycle;Signal;HPM_P1;HPM_P2
2022/05/23 00:02:27;;;;;;;3.33;3.03;;;16.50;73.90;;;;;;4999962;27;95108;-51
2022/05/23 00:05:01;;;;;;;2.97;2.78;;;16.50;73.90;;;;;;5001172;28;95099;-56
2022/05/23 00:07:38;;;;;;;4.78;3.35;;;16.60;73.90;;;;;;5002840;28;95195;-57
2022/05/23 00:10:12;;;;;;;3.08;2.83;;;16.60;73.80;;;;;;5001969;28;95881;-55
2022/05/23 00:12:45;;;;;;;4.18;3.08;;;16.60;73.80;;;;;;5001765;28;95615;-54
2022/05/23 00:15:18;;;;;;;3.83;2.72;;;16.60;73.80;;;;;;5002257;28;94913;-51
2022/05/23 00:17:50;;;;;;;5.20;2.75;;;16.60;73.80;;;;;;5000908;28;94977;-57
2022/05/23 00:20:24;;;;;;;4.47;2.53;;;16.60;74.20;;;;;;5001519;28;96053;-58
2022/05/23 00:22:57;;;;;;;3.70;3.30;;;16.60;74.40;;;;;;5001211;28;95189;-49
2022/05/23 00:25:29;;;;;;;3.35;2.80;;;16.70;74.30;;;;;;5001903;28;94962;-53
2022/05/23 00:28:02;;;;;;;2.70;2.50;;;16.80;74.40;;;;;;5001737;28;95078;-43
2022/05/23 00:30:35;;;;;;;4.28;3.42;;;16.90;74.40;;;;;;5001645;28;96104;-54
2022/05/23 00:35:58;;;;;;;2.88;2.58;;;17.00;74.50;;;;;;5001704;28;94907;-52
2022/05/23 00:38:30;;;;;;;3.15;2.42;;;17.00;74.60;;;;;;5001748;28;95167;-48
2022/05/23 00:44:21;;;;;;;2.80;2.38;;;17.10;74.70;;;;;;4999450;28;95426;-54
2022/05/23 00:47:15;;;;;;;2.63;2.22;;;17.10;74.80;;;;;;4998186;27;95083;-57
2022/05/23 00:49:48;;;;;;;2.50;2.30;;;17.20;74.80;;;;;;5002639;28;95233;-67
2022/05/23 00:52:28;;;;;;;2.60;2.40;;;17.30;74.90;;;;;;5001967;28;96436;-59
2022/05/23 00:55:04;;;;;;;3.08;2.42;;;17.30;74.90;;;;;;5001685;28;95178;-54
2022/05/23 00:57:42;;;;;;;3.75;2.20;;;17.30;74.90;;;;;;5000930;28;95006;-56
2022/05/23 01:00:17;;;;;;;3.78;2.25;;;17.40;74.90;;;;;;5001701;28;95045;-64
2022/05/23 01:02:59;;;;;;;3.15;2.85;;;17.40;74.90;;;;;;5001121;28;95722;-51
2022/05/23 01:05:32;;;;;;;3.03;2.43;;;17.40;74.80;;;;;;5000357;28;95344;-59
2022/05/23 01:08:07;;;;;;;2.67;2.47;;;17.40;74.90;;;;;;5001669;28;94884;-48
2022/05/23 01:10:41;;;;;;;3.25;2.30;;;17.50;75.00;;;;;;5000178;28;95197;-60
2022/05/23 01:13:14;;;;;;;3.53;2.83;;;17.50;75.00;;;;;;4999540;28;95836;-66
2022/05/23 01:15:50;;;;;;;3.22;2.08;;;17.60;75.00;;;;;;5000379;28;95221;-61
2022/05/23 01:18:28;;;;;;;3.97;2.67;;;17.60;75.10;;;;;;5000742;28;95019;-59
2022/05/23 01:21:05;;;;;;;2.80;2.50;;;17.60;75.20;;;;;;5001011;28;95271;-59
2022/05/23 01:23:44;;;;;;;2.90;2.47;;;17.60;75.40;;;;;;5000585;28;95924;-60
2022/05/23 01:26:27;;;;;;;4.30;2.55;;;17.60;76.40;;;;;;4998533;28;95758;-58
2022/05/23 01:29:01;;;;;;;2.42;2.22;;;17.70;76.20;;;;;;4999326;28;95119;-58
2022/05/23 01:31:49;;;;;;;2.53;2.33;;;17.80;76.30;;;;;;4998279;28;95434;-65
2022/05/23 01:34:30;;;;;;;4.43;3.05;;;17.80;76.40;;;;;;4998935;28;96055;-47
2022/05/23 01:37:08;;;;;;;3.92;3.08;;;17.90;74.80;;;;;;5000232;28;95430;-51
2022/05/23 01:40:14;;;;;;;11.73;4.07;;;17.90;72.90;;;;;;4995992;28;95095;-64
2022/05/23 01:42:59;;;;;;;9.55;3.30;;;17.90;73.40;;;;;;4999452;28;95274;-63
2022/05/23 01:45:34;;;;;;;4.93;3.10;;;17.90;73.40;;;;;;4999234;28;96589;-56
2022/05/23 01:48:18;;;;;;;3.90;3.33;;;17.90;73.60;;;;;;4999528;28;95780;-50
2022/05/23 01:50:53;;;;;;;4.00;2.90;;;18.10;74.20;;;;;;5001351;28;94955;-54
2022/05/23 01:53:26;;;;;;;3.53;3.03;;;18.30;75.00;;;;;;4999896;28;95511;-53
2022/05/23 01:56:07;;;;;;;8.07;3.15;;;18.40;74.10;;;;;;5000672;28;96403;-47
2022/05/23 02:01:53;;;;;;;6.93;3.00;;;18.80;73.90;;;;;;4998263;28;95327;-59
2022/05/23 02:04:39;;;;;;;4.28;2.88;;;18.90;72.30;;;;;;5001082;28;95410;-50
2022/05/23 02:07:17;;;;;;;6.43;3.35;;;18.90;71.00;;;;;;4982857;28;96588;-52
2022/05/23 02:09:50;;;;;;;5.35;3.50;;;18.90;70.50;;;;;;4999401;28;95408;-51
2022/05/23 02:12:26;;;;;;;4.13;3.08;;;18.90;70.60;;;;;;4998465;28;94839;-44
2022/05/23 02:15:01;;;;;;;3.97;2.92;;;19.00;70.40;;;;;;4998574;28;95390;-52
2022/05/23 02:18:06;;;;;;;5.05;3.65;;;19.00;70.90;;;;;;4985695;28;102280;-49
2022/05/23 02:20:38;;;;;;;3.85;3.42;;;19.00;69.90;;;;;;4999444;28;95562;-47
2022/05/23 02:23:11;;;;;;;4.72;3.20;;;19.10;70.50;;;;;;5000156;28;94936;-48
2022/05/23 02:25:43;;;;;;;3.85;2.40;;;19.30;70.40;;;;;;5000003;28;95015;-49
2022/05/23 02:28:35;;;;;;;3.97;2.90;;;19.50;70.10;;;;;;4994735;28;95782;-49
2022/05/23 02:31:08;;;;;;;3.17;2.88;;;19.70;70.10;;;;;;4999489;28;95200;-48
2022/05/23 02:33:53;;;;;;;3.45;2.70;;;19.80;69.40;;;;;;4998190;28;95100;-50
2022/05/23 02:36:40;;;;;;;5.25;2.63;;;20.00;69.90;;;;;;4999400;28;95375;-59
2022/05/23 02:39:15;;;;;;;3.72;2.30;;;20.10;70.10;;;;;;4997693;28;96538;-48
2022/05/23 02:41:51;;;;;;;5.53;2.85;;;20.30;70.10;;;;;;4999338;28;95275;-54
2022/05/23 02:44:27;;;;;;;3.90;2.65;;;20.40;70.00;;;;;;4998334;28;95142;-52
2022/05/23 02:47:03;;;;;;;4.93;3.20;;;20.50;69.00;;;;;;4996634;28;95342;-49
2022/05/23 02:49:40;;;;;;;5.47;2.95;;;20.20;64.80;;;;;;4998628;28;96113;-48
2022/05/23 02:52:21;;;;;;;4.13;2.88;;;20.20;65.40;;;;;;4998289;28;95422;-48
2022/05/23 02:55:07;;;;;;;7.70;3.58;;;20.10;65.30;;;;;;4998356;28;95101;-46
2022/05/23 02:57:40;;;;;;;3.70;3.35;;;20.00;65.50;;;;;;4999007;28;95324;-45
2022/05/23 03:00:22;;;;;;;3.70;3.13;;;20.00;65.60;;;;;;4999197;28;95904;-47
2022/05/23 03:03:02;;;;;;;5.90;3.55;;;20.00;64.80;;;;;;4997688;28;95173;-45
2022/05/23 03:05:48;;;;;;;4.07;3.03;;;20.00;65.00;;;;;;4997839;28;95256;-47
2022/05/23 03:08:25;;;;;;;8.75;3.13;;;20.00;64.60;;;;;;4997881;28;95339;-46
2022/05/23 03:11:01;;;;;;;3.03;2.70;;;20.00;64.80;;;;;;4997451;28;95888;-44
2022/05/23 03:13:32;;;;;;;5.07;3.33;;;20.00;64.50;;;;;;4998549;28;95361;-48
2022/05/23 03:16:11;;;;;;;4.55;3.20;;;20.00;65.10;;;;;;4999255;28;94912;-47
2022/05/23 03:18:44;;;;;;;4.53;3.30;;;20.00;64.60;;;;;;4999035;28;95323;-49
2022/05/23 03:26:58;;;;;;;4.22;2.85;;;20.10;64.20;;;;;;4998858;28;95856;-49
2022/05/23 03:27:01;;;;;;;3.30;2.87;;;20.00;64.40;;;;;;4998620;28;95231;-47
2022/05/23 03:29:44;;;;;;;3.83;2.75;;;20.10;64.50;;;;;;4998455;28;95326;-55
2022/05/23 03:32:15;;;;;;;3.67;3.38;;;20.10;64.10;;;;;;4997014;27;95955;-53
2022/05/23 03:34:47;;;;;;;4.05;3.15;;;20.10;64.10;;;;;;4998635;28;95206;-51
2022/05/23 03:37:27;;;;;;;3.80;3.20;;;20.10;64.70;;;;;;4997369;28;95066;-47
2022/05/23 03:40:06;;;;;;;;;;;20.10;63.90;;;;;;4997940;28;95062;-48
2022/05/23 03:42:46;;;;;;;3.03;2.83;;;20.10;64.20;;;;;;4998272;28;96818;-53
2022/05/23 03:45:19;;;;;;;3.08;2.78;;;20.10;64.00;;;;;;4998535;28;95392;-50
2022/05/23 03:47:55;;;;;;;5.18;2.72;;;20.10;63.50;;;;;;5000180;28;94970;-56
2022/05/23 03:50:29;;;;;;;4.57;2.90;;;20.10;63.30;;;;;;4999819;28;95183;-51
2022/05/23 03:53:04;;;;;;;4.50;2.83;;;20.20;63.50;;;;;;4998602;28;96048;-56
2022/05/23 03:55:41;;;;;;;4.05;3.47;;;20.20;62.20;;;;;;4997667;28;95439;-48
2022/05/23 03:58:24;;;;;;;2.65;2.40;;;20.30;64.30;;;;;;4999147;28;94982;-55
2022/05/23 04:01:32;;;;;;;4.53;3.40;;;20.60;65.20;;;;;;4992956;28;95035;-60
2022/05/23 04:04:29;;;;;;;5.35;4.47;;;20.80;64.00;;;;;;4998632;28;94852;-57
2022/05/23 04:07:24;;;;;;;4.43;3.42;;;21.00;63.90;;;;;;4995991;28;94934;-51
2022/05/23 04:10:09;;;;;;;5.28;3.92;;;21.20;64.00;;;;;;4997132;28;94975;-48
2022/05/23 04:12:43;;;;;;;4.80;3.60;;;21.30;63.70;;;;;;4998584;28;95162;-52
2022/05/23 04:15:15;;;;;;;3.97;3.58;;;21.40;63.80;;;;;;4998245;28;95887;-49
2022/05/23 04:17:48;;;;;;;6.07;4.10;;;21.60;63.70;;;;;;4996294;27;95803;-51
2022/05/23 04:20:23;;;;;;;4.32;3.88;;;21.70;63.40;;;;;;4998287;28;94953;-50
2022/05/23 04:23:09;;;;;;;5.18;3.60;;;21.70;63.30;;;;;;4996788;28;95419;-58
2022/05/23 04:25:46;;;;;;;4.55;4.15;;;21.80;63.20;;;;;;4996433;28;96251;-50
2022/05/23 04:28:22;;;;;;;4.63;3.70;;;21.90;63.00;;;;;;4997688;28;95236;-47
2022/05/23 04:30:55;;;;;;;4.80;4.40;;;22.00;63.10;;;;;;4996770;28;94979;-53
2022/05/23 04:36:29;;;;;;;5.15;4.20;;;22.20;62.60;;;;;;4997422;28;96505;-50
2022/05/23 04:39:01;;;;;;;5.50;4.35;;;22.20;62.50;;;;;;4996285;28;95519;-47
2022/05/23 04:41:37;;;;;;;5.55;3.85;;;22.30;62.40;;;;;;4999847;28;95128;-44
2022/05/23 04:44:09;;;;;;;4.10;3.70;;;22.40;62.40;;;;;;5001737;28;95281;-46
2022/05/23 04:49:49;;;;;;;4.47;4.07;;;22.50;62.30;;;;;;5001697;28;95427;-56
2022/05/23 04:52:44;;;;;;;4.22;3.80;;;22.60;62.20;;;;;;5001904;28;95038;-51
2022/05/23 04:55:20;;;;;;;6.80;4.82;;;22.70;62.40;;;;;;5000874;28;95420;-53
2022/05/23 04:57:53;;;;;;;5.18;4.65;;;22.60;59.30;;;;;;5001418;28;96388;-55
2022/05/23 05:00:26;;;;;;;5.65;4.13;;;22.50;59.80;;;;;;5000766;28;95555;-51
2022/05/23 05:03:04;;;;;;;6.30;4.45;;;22.40;60.10;;;;;;5001473;28;94926;-49
2022/05/23 05:05:46;;;;;;;4.28;3.88;;;22.30;60.10;;;;;;5001281;28;95316;-50
2022/05/23 05:08:26;;;;;;;;;;;22.10;60.00;;;;;;4999759;28;96213;-47
2022/05/23 05:10:58;;;;;;;6.75;4.80;;;22.10;60.60;;;;;;5002217;28;95146;-53
2022/05/23 05:13:32;;;;;;;4.60;4.07;;;22.00;59.70;;;;;;5000089;28;95279;-48
2022/05/23 05:16:07;;;;;;;6.32;5.00;;;21.90;60.70;;;;;;5000650;28;95287;-47
2022/05/23 05:18:41;;;;;;;5.25;4.75;;;21.90;60.80;;;;;;4999021;28;96489;-48
2022/05/23 05:21:27;;;;;;;5.60;4.75;;;21.80;60.90;;;;;;5000427;28;95835;-47
2022/05/23 05:24:17;;;;;;;6.05;5.35;;;21.70;61.10;;;;;;4998116;28;94800;-46
2022/05/23 05:27:11;;;;;;;5.95;4.93;;;21.70;60.90;;;;;;5000302;28;95406;-53
2022/05/23 05:29:43;;;;;;;6.07;5.30;;;21.60;61.60;;;;;;4983286;28;96045;-55
2022/05/23 05:32:20;;;;;;;5.25;4.75;;;21.70;61.90;;;;;;4999218;27;95202;-46
2022/05/23 05:35:15;;;;;;;6.65;5.63;;;21.80;62.10;;;;;;4999712;28;94992;-52
2022/05/23 05:38:00;;;;;;;7.97;6.22;;;22.00;62.10;;;;;;5000798;28;95197;-52
2022/05/23 05:40:35;;;;;;;6.38;5.78;;;22.10;62.30;;;;;;4999545;28;96172;-55
2022/05/23 05:43:19;;;;;;;6.68;5.90;;;22.10;62.20;;;;;;4998527;28;96091;-56
2022/05/23 05:46:00;;;;;;;7.07;5.78;;;22.20;62.30;;;;;;5000994;28;95048;-57
2022/05/23 05:48:50;;;;;;;6.53;5.57;;;22.20;62.00;;;;;;5001365;28;95319;-57
2022/05/23 05:51:26;;;;;;;7.28;5.28;;;22.30;62.10;;;;;;5000966;28;96276;-48
2022/05/23 05:54:21;;;;;;;7.10;5.55;;;22.30;62.30;;;;;;5000729;28;95399;-48
2022/05/23 05:57:06;;;;;;;5.93;5.32;;;22.40;62.40;;;;;;4999887;28;94964;-51
2022/05/23 05:59:41;;;;;;;5.38;4.88;;;22.40;62.40;;;;;;4999286;28;94767;-48
2022/05/23 06:02:14;;;;;;;5.60;4.93;;;22.50;62.50;;;;;;4998295;28;96090;-57
2022/05/23 06:04:49;;;;;;;6.28;4.63;;;22.50;62.30;;;;;;4998769;28;97710;-49
2022/05/23 06:13:50;;;;;;;5.45;4.50;;;22.60;60.80;;;;;;4996115;28;95647;-49
2022/05/23 06:16:42;;;;;;;5.40;4.60;;;22.60;60.90;;;;;;4999427;28;95554;-57
2022/05/23 06:19:29;;;;;;;4.47;4.03;;;22.60;61.00;;;;;;5000110;28;94877;-46
2022/05/23 06:22:15;;;;;;;5.47;4.03;;;22.50;60.30;;;;;;4999766;28;95330;-51
2022/05/23 06:25:02;;;;;;;5.88;3.53;;;22.50;61.50;;;;;;4999660;28;95848;-55
2022/05/23 06:27:37;;;;;;;5.15;3.90;;;22.40;60.40;;;;;;4997680;28;95497;-52
2022/05/23 06:30:16;;;;;;;4.15;3.75;;;22.30;60.60;;;;;;4998818;28;95061;-48
2022/05/23 06:32:50;;;;;;;3.28;2.97;;;22.20;60.30;;;;;;4997058;28;95287;-55
2022/05/23 06:35:34;;;;;;;4.18;3.70;;;22.20;60.40;;;;;;4999217;28;96051;-45
2022/05/23 06:38:12;;;;;;;5.13;3.50;;;22.10;60.70;;;;;;4998753;28;95104;-53
2022/05/23 06:40:43;;;;;;;5.88;4.00;;;22.10;61.30;;;;;;4996657;28;95040;-56
2022/05/23 06:43:36;;;;;;;6.78;4.78;;;22.00;61.50;;;;;;4996865;28;95012;-53
2022/05/23 06:46:27;;;;;;;6.65;4.70;;;21.80;60.50;;;;;;4996539;28;95639;-51
2022/05/23 06:49:03;;;;;;;7.32;4.60;;;21.80;60.80;;;;;;4997056;28;95005;-52
2022/05/23 06:51:52;;;;;;;5.63;5.07;;;21.70;60.20;;;;;;5000547;28;94971;-50
2022/05/23 06:54:37;;;;;;;4.50;4.10;;;21.50;61.70;;;;;;4999035;28;95471;-50
2022/05/23 06:57:14;;;;;;;4.95;4.43;;;21.40;60.10;;;;;;4998336;28;96221;-55
2022/05/23 06:59:45;;;;;;;6.53;5.20;;;21.20;60.70;;;;;;4999193;28;94906;-50
2022/05/23 07:02:19;;;;;;;6.97;4.60;;;21.20;60.40;;;;;;4998381;28;95378;-54
2022/05/23 07:14:20;;;;;;;9.27;4.95;;;20.20;61.40;;;;;;4995683;28;95206;-53
2022/05/23 07:16:55;;;;;;;6.53;5.30;;;20.00;62.00;;;;;;4997617;27;95436;-55
2022/05/23 07:19:48;;;;;;;6.10;5.03;;;19.80;62.50;;;;;;4998153;28;95697;-55
2022/05/23 07:22:23;;;;;;;13.15;5.47;;;19.70;63.00;;;;;;4997273;28;97081;-52
2022/05/23 07:24:57;;;;;;;8.90;6.00;;;19.60;62.70;;;;;;4999098;28;94933;-55
2022/05/23 07:27:31;;;;;;;9.23;5.70;;;19.50;62.90;;;;;;4999073;28;95040;-53
2022/05/23 07:30:03;;;;;;;7.05;4.95;;;19.40;63.20;;;;;;4998618;28;95844;-55
2022/05/23 07:32:41;;;;;;;12.05;5.47;;;19.40;64.40;;;;;;4995121;28;97670;-54
2022/05/23 07:35:19;;;;;;;7.32;5.50;;;19.50;63.40;;;;;;4998666;28;95010;-56
2022/05/23 07:37:54;;;;;;;7.32;5.47;;;19.40;62.90;;;;;;4997429;28;95441;-56
2022/05/23 07:40:27;;;;;;;6.32;5.47;;;19.30;62.80;;;;;;4998222;28;96596;-44
2022/05/23 07:43:15;;;;;;;6.75;5.47;;;19.10;63.50;;;;;;4998268;28;95702;-50
2022/05/23 07:45:51;;;;;;;7.55;5.55;;;18.90;63.90;;;;;;4981559;28;95011;-49
2022/05/23 07:48:27;;;;;;;6.45;5.75;;;18.90;64.50;;;;;;4998437;28;95227;-49
2022/05/23 07:51:00;;;;;;;7.72;5.95;;;18.80;64.80;;;;;;4997834;28;96095;-49
2022/05/23 08:02:22;;;;;;;9.50;7.18;;;18.30;65.00;;;;;;4997066;27;96379;-50
2022/05/23 08:05:08;;;;;;;10.10;8.43;;;18.30;65.30;;;;;;4999070;28;95745;-47
2022/05/23 08:07:52;;;;;;;12.68;9.35;;;18.20;64.80;;;;;;4998423;28;95450;-48
2022/05/23 08:10:26;;;;;;;10.65;8.80;;;18.10;65.30;;;;;;4998426;28;95356;-48
2022/05/23 08:13:02;;;;;;;8.98;8.05;;;18.00;65.40;;;;;;4998100;28;96074;-46
2022/05/23 08:15:35;;;;;;;10.98;7.80;;;18.00;66.00;;;;;;4998164;28;97630;-46
2022/05/23 08:18:16;;;;;;;10.25;8.43;;;17.90;66.10;;;;;;5000492;28;94960;-46
2022/05/23 08:20:59;;;;;;;10.20;8.48;;;17.80;66.10;;;;;;5001821;28;95339;-45
2022/05/23 08:23:37;;;;;;;9.40;7.47;;;17.80;66.30;;;;;;4999953;28;96613;-49
2022/05/23 08:26:18;;;;;;;13.32;8.63;;;17.80;66.40;;;;;;5001221;28;95419;-50
2022/05/23 08:28:52;;;;;;;13.43;9.25;;;17.70;66.20;;;;;;5001531;28;94978;-46
2022/05/23 08:31:28;;;;;;;10.90;8.80;;;17.70;66.30;;;;;;5000381;28;95493;-46
2022/05/23 08:34:13;;;;;;;12.18;9.27;;;17.70;66.20;;;;;;5001341;28;96006;-47
2022/05/23 08:36:45;;;;;;;12.52;9.38;;;17.70;66.10;;;;;;5001024;28;95401;-47
2022/05/23 08:39:19;;;;;;;13.65;10.00;;;17.60;65.90;;;;;;5000160;28;95016;-46
2022/05/23 08:42:25;;;;;;;12.25;9.43;;;17.60;65.70;;;;;;5000579;28;95340;-47
2022/05/23 08:45:14;;;;;;;12.18;9.05;;;17.50;66.00;;;;;;5000008;28;96784;-46
2022/05/23 08:47:56;;;;;;;12.88;8.77;;;17.50;66.00;;;;;;5000970;27;95129;-47
2022/05/23 08:50:45;;;;;;;20.63;12.13;;;17.50;66.10;;;;;;5002464;28;94991;-48
2022/05/23 08:53:42;;;;;;;17.05;10.40;;;17.40;66.10;;;;;;5001302;28;95320;-49
2022/05/23 08:56:37;;;;;;;16.73;11.23;;;17.40;66.00;;;;;;4997804;28;95676;-45
2022/05/23 08:59:25;;;;;;;12.70;10.10;;;17.40;65.90;;;;;;5000105;28;95238;-45
2022/05/23 09:02:05;;;;;;;13.57;9.73;;;17.30;65.90;;;;;;4999602;28;95311;-46
2022/05/23 09:04:46;;;;;;;14.90;11.00;;;17.30;66.10;;;;;;5000544;28;95064;-46
2022/05/23 09:07:47;;;;;;;16.25;11.98;;;17.30;66.40;;;;;;5000173;28;96066;-47
2022/05/23 09:10:31;;;;;;;17.63;11.40;;;17.30;66.20;;;;;;4999841;28;95398;-47
2022/05/23 09:13:02;;;;;;;16.98;11.65;;;17.20;66.30;;;;;;5000480;28;94999;-46
2022/05/23 09:15:37;;;;;;;18.27;12.73;;;17.20;66.40;;;;;;5000211;28;95171;-48
2022/05/23 09:18:17;;;;;;;13.95;10.98;;;17.10;66.60;;;;;;4999745;28;96099;-46
2022/05/23 09:20:59;;;;;;;16.73;11.15;;;17.10;66.80;;;;;;4999699;28;95188;-46
2022/05/23 09:23:34;;;;;;;13.57;10.77;;;17.00;66.60;;;;;;5000069;28;94946;-46
2022/05/23 09:26:13;;;;;;;16.75;11.10;;;17.00;66.60;;;;;;4999749;28;95149;-47
2022/05/23 09:28:45;;;;;;;17.55;11.35;;;16.90;66.80;;;;;;4997855;28;95154;-46
2022/05/23 09:31:52;;;;;;;17.27;11.27;;;16.80;67.00;;;;;;4999593;28;95281;-46
2022/05/23 09:34:49;;;;;;;13.07;9.27;;;16.80;67.00;;;;;;4999991;28;95046;-47
2022/05/23 09:37:30;;;;;;;14.65;9.55;;;16.70;67.80;;;;;;4999265;28;95344;-47
2022/05/23 09:40:01;;;;;;;14.43;10.02;;;16.70;67.20;;;;;;5000374;28;95064;-46
2022/05/23 09:48:24;;;;;;;11.93;9.20;;;16.60;68.40;;;;;;5001552;28;95157;-47
2022/05/23 09:51:10;;;;;;;17.73;9.25;;;16.50;68.70;;;;;;5000903;28;95858;-44
2022/05/23 09:53:53;;;;;;;11.13;8.07;;;16.50;68.40;;;;;;5001131;28;95209;-51
2022/05/23 09:56:34;;;;;;;11.27;8.77;;;16.60;70.50;;;;;;5001129;28;94862;-48
2022/05/23 09:59:46;;;;;;;12.85;8.45;;;16.80;71.60;;;;;;5000628;28;95197;-54
2022/05/23 10:02:34;;;;;;;11.63;8.90;;;17.00;72.40;;;;;;4999041;27;96069;-51
2022/05/23 10:05:25;;;;;;;14.48;9.60;;;17.10;72.80;;;;;;4998547;28;95111;-50
2022/05/23 10:08:05;;;;;;;13.07;8.30;;;17.10;73.00;;;;;;5000205;28;94991;-54
2022/05/23 10:10:52;;;;;;;11.70;10.00;;;17.20;73.00;;;;;;5000043;28;95292;-50
2022/05/23 10:13:53;;;;;;;12.40;9.10;;;17.30;72.90;;;;;;4998905;28;96569;-51
2022/05/23 10:16:28;;;;;;;11.88;9.48;;;17.40;72.60;;;;;;4998986;28;95389;-49
2022/05/23 10:19:03;;;;;;;13.88;10.25;;;17.50;72.40;;;;;;4999714;28;94950;-52
2022/05/23 10:21:41;;;;;;;13.85;10.13;;;17.60;72.30;;;;;;4999380;28;95219;-49
2022/05/23 10:24:17;;;;;;;15.20;9.80;;;17.60;72.00;;;;;;4997232;28;95416;-54
2022/05/23 10:26:51;;;;;;;14.70;10.55;;;17.70;71.90;;;;;;4998087;28;95187;-51
2022/05/23 10:29:45;;;;;;;14.30;10.32;;;17.80;71.90;;;;;;4999006;28;95016;-55
2022/05/23 10:32:28;;;;;;;13.32;8.90;;;17.80;71.70;;;;;;4993926;27;95273;-54
2022/05/23 10:35:10;;;;;;;12.15;9.60;;;17.90;71.60;;;;;;4999632;28;95908;-54
2022/05/23 10:37:44;;;;;;;13.32;9.80;;;17.90;71.70;;;;;;4998399;28;95290;-53
2022/05/23 10:43:13;;;;;;;14.43;9.98;;;18.00;71.40;;;;;;4999629;28;95186;-53
2022/05/23 10:45:59;;;;;;;11.77;8.88;;;18.10;71.60;;;;;;4998716;28;96377;-50
2022/05/23 10:48:59;;;;;;;13.05;9.65;;;18.10;71.50;;;;;;4999560;28;95815;-51
2022/05/23 10:52:07;;;;;;;14.65;10.60;;;18.10;71.30;;;;;;5000404;28;95081;-51
2022/05/23 10:55:12;;;;;;;14.82;10.02;;;18.10;71.40;;;;;;4980497;28;95276;-48
2022/05/23 10:58:08;;;;;;;12.77;10.70;;;18.10;71.30;;;;;;4997344;28;95278;-55
2022/05/23 11:00:52;;;;;;;12.18;9.85;;;18.10;71.30;;;;;;4998360;28;95249;-53
2022/05/23 11:03:46;;;;;;;14.20;10.73;;;18.00;71.10;;;;;;4999682;28;94950;-51
2022/05/23 11:06:30;;;;;;;15.40;10.30;;;18.00;71.00;;;;;;4999308;28;95162;-52
2022/05/23 11:09:31;;;;;;;12.18;10.13;;;18.00;71.00;;;;;;4997000;28;95858;-53
2022/05/23 11:12:18;;;;;;;13.18;10.18;;;17.90;71.10;;;;;;4997997;28;95231;-50
2022/05/23 11:15:15;;;;;;;12.48;10.93;;;17.90;71.20;;;;;;4998424;28;94908;-50
2022/05/23 11:18:12;;;;;;;13.95;10.82;;;17.90;71.30;;;;;;4996184;28;96825;-55
2022/05/23 11:20:44;;;;;;;11.35;9.05;;;17.80;71.30;;;;;;4997252;28;96577;-54
2022/05/23 11:23:24;;;;;;;10.32;9.18;;;17.80;71.40;;;;;;4998781;28;95186;-52
2022/05/23 11:26:01;;;;;;;12.88;9.88;;;17.80;71.40;;;;;;4999422;28;94974;-47
2022/05/23 11:35:03;;;;;;;12.98;10.88;;;17.70;71.30;;;;;;4998807;28;94854;-47
2022/05/23 11:37:43;;;;;;;13.73;10.43;;;17.70;71.30;;;;;;4997895;28;95078;-49
2022/05/23 11:40:29;;;;;;;12.45;9.85;;;17.60;71.20;;;;;;4997754;28;95311;-50
2022/05/23 11:43:14;;;;;;;12.88;9.43;;;17.60;71.20;;;;;;4998347;28;96427;-51
2022/05/23 11:46:00;;;;;;;12.45;10.25;;;17.60;71.20;;;;;;4999011;28;95201;-48
2022/05/23 11:48:40;;;;;;;15.18;10.18;;;17.60;71.20;;;;;;4998710;28;94899;-56
2022/05/23 11:51:23;;;;;;;12.60;9.80;;;17.60;71.10;;;;;;5002823;28;95181;-57
2022/05/23 11:54:16;;;;;;;14.57;10.65;;;17.60;71.30;;;;;;5003246;28;96394;-57
2022/05/23 11:57:03;;;;;;;11.13;9.80;;;17.70;71.50;;;;;;5000644;28;95405;-57
2022/05/23 11:59:36;;;;;;;10.40;8.15;;;17.70;71.30;;;;;;5002874;28;94905;-54
2022/05/23 12:02:12;;;;;;;12.82;8.82;;;17.80;71.30;;;;;;5001557;27;95148;-56
2022/05/23 12:04:55;;;;;;;12.13;8.55;;;17.80;71.10;;;;;;5002679;28;95888;-52
2022/05/23 12:07:44;;;;;;;9.93;8.88;;;17.80;71.20;;;;;;5001752;28;95800;-52
2022/05/23 12:10:25;;;;;;;12.07;8.85;;;17.70;71.20;;;;;;5002856;28;94877;-54
2022/05/23 12:13:34;;;;;;;12.50;9.63;;;17.70;71.30;;;;;;5002280;28;95191;-55
2022/05/23 12:16:27;;;;;;;11.32;9.45;;;17.70;71.30;;;;;;5001624;28;96385;-51
2022/05/23 12:19:28;;;;;;;9.70;7.72;;;17.70;71.40;;;;;;4999741;28;95149;-54
2022/05/23 12:22:24;;;;;;;10.32;8.38;;;17.60;71.40;;;;;;5001774;28;94958;-55
2022/05/23 12:25:08;;;;;;;11.88;9.38;;;17.60;71.40;;;;;;5002144;28;95072;-54
2022/05/23 12:27:46;;;;;;;12.10;8.52;;;17.60;71.40;;;;;;5001350;28;96080;-53
2022/05/23 12:30:24;;;;;;;10.15;8.25;;;17.60;71.40;;;;;;5001474;28;95751;-54
2022/05/23 12:33:01;;;;;;;9.40;7.88;;;17.60;71.40;;;;;;5001521;28;94985;-53
2022/05/23 12:35:59;;;;;;;10.15;7.82;;;17.70;71.20;;;;;;5001702;28;95163;-52
2022/05/23 12:39:02;;;;;;;8.77;7.53;;;17.80;71.00;;;;;;5000550;28;95877;-52
2022/05/23 12:41:54;;;;;;;10.85;7.88;;;17.80;70.80;;;;;;5001465;28;95814;-54
2022/05/23 12:44:45;;;;;;;8.90;7.85;;;17.90;70.70;;;;;;5001676;28;94957;-55
2022/05/23 12:47:53;;;;;;;8.77;7.72;;;17.90;70.50;;;;;;5002052;27;95301;-51
2022/05/23 12:51:04;;;;;;;8.57;7.50;;;17.90;70.60;;;;;;5002298;28;95802;-56
2022/05/23 12:54:07;;;;;;;12.73;8.48;;;17.80;70.50;;;;;;5001617;28;95209;-54
2022/05/23 12:57:08;;;;;;;9.38;7.95;;;17.80;70.60;;;;;;5002491;28;94949;-54
2022/05/23 13:00:15;;;;;;;10.15;8.05;;;17.80;70.60;;;;;;5001757;28;95167;-55
2022/05/23 13:03:27;;;;;;;8.68;7.78;;;17.80;70.60;;;;;;4999488;27;95814;-55
2022/05/23 13:06:19;;;;;;;8.55;7.45;;;17.90;70.50;;;;;;5000756;28;95065;-54
2022/05/23 13:09:02;;;;;;;9.88;8.38;;;17.90;71.00;;;;;;5001847;28;94934;-53
2022/05/23 13:12:06;;;;;;;10.18;8.63;;;17.90;70.40;;;;;;5001319;28;95147;-51
2022/05/23 13:15:00;;;;;;;9.40;8.07;;;17.80;70.30;;;;;;5000085;28;95977;-53
2022/05/23 13:17:43;;;;;;;10.43;8.40;;;17.80;70.60;;;;;;4997198;28;95370;-54
2022/05/23 13:23:24;;;;;;;11.18;8.00;;;17.70;70.60;;;;;;5001094;28;95205;-56
2022/05/23 13:26:05;;;;;;;11.88;8.73;;;17.70;70.70;;;;;;5000510;28;95984;-54
2022/05/23 13:28:58;;;;;;;10.40;8.18;;;17.70;70.70;;;;;;5000427;28;95332;-52
2022/05/23 13:31:35;;;;;;;8.82;7.82;;;17.70;70.70;;;;;;5000725;28;95029;-56
2022/05/23 13:34:17;;;;;;;10.70;9.05;;;17.60;70.60;;;;;;5000809;28;95231;-52
2022/05/23 13:36:51;;;;;;;9.38;8.15;;;17.60;70.70;;;;;;5000334;28;95860;-50
2022/05/23 13:39:24;;;;;;;10.55;8.10;;;17.60;70.80;;;;;;5000312;28;95764;-53
2022/05/23 13:42:16;;;;;;;11.48;8.45;;;17.50;70.80;;;;;;5000930;28;94977;-50
2022/05/23 13:44:53;;;;;;;;;;;17.50;70.90;;;;;;5001459;28;95173;-53
2022/05/23 13:47:32;;;;;;;12.13;9.05;;;17.50;70.90;;;;;;5002229;27;96041;-59
2022/05/23 13:50:22;;;;;;;10.45;8.65;;;17.50;71.00;;;;;;5001590;28;96171;-48
2022/05/23 13:53:11;;;;;;;10.18;8.27;;;17.60;71.00;;;;;;5003599;28;94964;-56
2022/05/23 13:55:55;;;;;;;8.50;7.22;;;17.70;70.80;;;;;;5004589;28;95190;-51
2022/05/23 13:58:32;;;;;;;11.82;7.95;;;17.80;68.80;;;;;;5003971;28;96390;-55
2022/05/23 14:01:26;;;;;;;9.23;7.20;;;17.80;70.80;;;;;;5003649;28;95857;-56
2022/05/23 14:04:05;;;;;;;9.82;7.68;;;17.90;71.00;;;;;;4992765;28;96397;-53
2022/05/23 14:07:09;;;;;;;11.10;8.50;;;17.90;70.90;;;;;;4984829;28;95679;-53
2022/05/23 14:09:46;;;;;;;8.63;7.70;;;18.00;70.60;;;;;;4985977;28;96328;-52
2022/05/23 14:12:26;;;;;;;10.20;8.18;;;18.00;70.50;;;;;;4982760;28;95943;-47
2022/05/23 14:15:19;;;;;;;10.80;9.13;;;18.00;70.20;;;;;;4980524;28;95273;-48
2022/05/23 14:17:52;;;;;;;9.32;8.07;;;18.00;70.00;;;;;;4979185;28;96523;-52
2022/05/23 14:20:45;;;;;;;9.45;8.10;;;18.00;69.90;;;;;;4980996;28;96031;-50
2022/05/23 14:23:19;;;;;;;9.98;8.40;;;18.10;69.60;;;;;;4983528;28;96357;-64
2022/05/23 14:26:19;;;;;;;9.77;8.10;;;18.00;69.30;;;;;;4986677;28;95859;-59
2022/05/23 14:28:55;;;;;;;;;;;18.10;69.40;;;;;;4988489;28;95975;-60
2022/05/23 14:31:47;;;;;;;12.02;8.15;;;18.10;69.60;;;;;;4983842;28;96630;-62
2022/05/23 14:34:27;;;;;;;11.15;8.52;;;18.20;69.80;;;;;;4986864;28;97496;-68
2022/05/23 14:37:04;;;;;;;10.77;8.23;;;18.20;69.70;;;;;;4985478;28;95743;-65
2022/05/23 14:39:36;;;;;;;10.45;8.35;;;18.30;69.80;;;;;;4985583;28;95417;-66
2022/05/23 14:42:33;;;;;;;11.10;8.43;;;18.40;67.70;;;;;;4988205;28;95892;-66
2022/05/23 14:45:24;;;;;;;9.07;7.65;;;18.40;69.70;;;;;;4987321;28;96005;-60
2022/05/23 14:48:07;;;;;;;13.45;10.73;;;18.50;69.70;;;;;;4984032;28;95651;-56
2022/05/23 14:50:51;;;;;;;10.73;8.95;;;18.40;68.60;;;;;;4984504;28;95665;-56
2022/05/23 14:56:58;;;;;;;11.80;9.85;;;18.20;68.30;;;;;;4977065;28;95771;-59
2022/05/23 15:02:48;;;;;;;18.42;14.10;;;17.90;69.20;;;;;;4967973;28;95726;-59
2022/05/23 15:05:18;;;;;;;19.13;14.07;;;17.90;69.30;;;;;;4974352;28;96198;-59
2022/05/23 15:08:01;;;;;;;15.82;13.40;;;17.80;69.40;;;;;;4981140;28;96160;-58